Time;durP1;ratioP1;P1;durP2;ratioP2;P2;SDS_P1;SDS_P2;PMS_P1;PMS_P2;Temp;Humidity;BMP_temperature;BMP_pressure;BME280_temperature;BME280_humidity;BME280_pressure;Samples;Min_cycle;Max_cycle;Signal;HPM_P1;HPM_P2
2022/08/08 00:00:37;;;;;;;1.70;1.10;;;23.80;65.70;;;;;;5039081;28;45451;-67
2022/08/08 00:03:08;;;;;;;1.10;1.00;;;23.80;65.70;;;;;;5039407;28;45365;-68
2022/08/08 00:05:39;;;;;;;1.73;0.90;;;23.80;65.70;;;;;;5039413;28;45497;-67
2022/08/08 00:08:11;;;;;;;1.15;1.05;;;23.80;65.60;;;;;;5039879;28;46196;-68
2022/08/08 00:10:48;;;;;;;1.27;1.00;;;23.80;65.70;;;;;;5039823;27;45411;-67
2022/08/08 00:13:20;;;;;;;0.75;0.70;;;23.80;65.70;;;;;;5039076;28;45465;-67
2022/08/08 00:15:54;;;;;;;1.13;1.02;;;23.80;66.90;;;;;;5038765;28;45660;-67
2022/08/08 00:18:28;;;;;;;0.70;0.70;;;23.80;65.90;;;;;;5034086;28;45387;-69
2022/08/08 00:20:57;;;;;;;1.50;1.10;;;23.80;65.90;;;;;;5038025;28;45358;-67
2022/08/08 00:23:33;;;;;;;1.25;1.00;;;23.80;65.70;;;;;;5037294;28;45357;-67
2022/08/08 00:26:04;;;;;;;0.95;0.82;;;23.70;65.60;;;;;;5038576;28;45568;-67
2022/08/08 00:28:42;;;;;;;1.58;1.00;;;23.70;65.60;;;;;;5038981;28;45498;-67
2022/08/08 00:31:16;;;;;;;1.08;0.98;;;23.80;65.60;;;;;;5038800;28;45344;-68
2022/08/08 00:33:52;;;;;;;1.30;0.90;;;23.70;66.60;;;;;;5039103;28;45442;-68
2022/08/08 00:36:27;;;;;;;1.38;0.93;;;23.70;65.50;;;;;;5032500;28;45341;-68
2022/08/08 00:39:03;;;;;;;1.40;0.98;;;23.70;65.40;;;;;;5040865;27;45462;-68
2022/08/08 00:42:03;;;;;;;1.45;1.00;;;23.70;65.40;;;;;;5034097;27;45310;-68
2022/08/08 00:45:07;;;;;;;0.90;0.90;;;23.70;65.40;;;;;;5020062;28;45243;-67
2022/08/08 00:48:17;;;;;;;1.30;0.95;;;23.70;65.60;;;;;;5032601;28;45559;-67
2022/08/08 00:51:23;;;;;;;1.73;1.10;;;23.70;65.60;;;;;;5038695;28;47208;-68
2022/08/08 00:54:18;;;;;;;1.35;0.90;;;23.70;65.60;;;;;;5028002;28;45325;-68
2022/08/08 00:57:21;;;;;;;1.95;1.00;;;23.70;65.50;;;;;;5020505;28;45360;-67
2022/08/08 01:00:09;;;;;;;1.38;1.08;;;23.70;65.50;;;;;;5020513;27;45330;-67
2022/08/08 01:03:24;;;;;;;1.77;0.98;;;23.70;65.50;;;;;;5020283;27;47650;-67
2022/08/08 01:06:31;;;;;;;1.85;1.00;;;23.70;65.60;;;;;;5024559;28;46149;-68
2022/08/08 01:09:28;;;;;;;1.40;1.00;;;23.70;65.40;;;;;;5040498;28;45459;-67
2022/08/08 01:12:38;;;;;;;1.38;0.98;;;23.70;65.50;;;;;;5040611;28;45335;-68
2022/08/08 01:15:38;;;;;;;1.40;1.05;;;23.70;65.60;;;;;;5039451;28;46313;-67
2022/08/08 01:18:45;;;;;;;1.05;0.80;;;23.80;65.70;;;;;;5039933;28;45852;-68
2022/08/08 01:21:43;;;;;;;0.98;0.90;;;23.80;66.80;;;;;;5010011;28;45233;-67
2022/08/08 01:24:49;;;;;;;2.55;1.25;;;23.70;65.90;;;;;;5039680;28;45453;-67
2022/08/08 01:27:49;;;;;;;1.52;1.00;;;23.70;65.90;;;;;;5039472;28;46328;-67
2022/08/08 01:30:54;;;;;;;1.30;1.00;;;23.70;66.00;;;;;;5037089;28;45326;-67
2022/08/08 01:33:42;;;;;;;1.63;1.00;;;23.70;65.90;;;;;;5039474;28;45304;-67
2022/08/08 01:36:45;;;;;;;1.17;1.02;;;23.70;66.00;;;;;;5039649;28;45387;-67
2022/08/08 01:39:34;;;;;;;1.40;1.08;;;23.70;65.90;;;;;;5011964;28;47201;-68
2022/08/08 01:42:09;;;;;;;0.90;0.80;;;23.70;66.10;;;;;;5030213;27;45310;-67
2022/08/08 01:44:58;;;;;;;1.45;0.80;;;23.70;65.90;;;;;;5019282;28;45294;-67
2022/08/08 01:47:37;;;;;;;0.93;0.82;;;23.70;65.90;;;;;;5035100;28;45700;-67
2022/08/08 01:50:15;;;;;;;1.10;0.82;;;23.70;65.80;;;;;;5035178;27;46314;-67
2022/08/08 01:52:52;;;;;;;0.85;0.80;;;23.70;65.90;;;;;;5026948;28;45351;-68
2022/08/08 01:55:27;;;;;;;1.35;0.90;;;23.70;65.70;;;;;;5029511;28;45300;-67
2022/08/08 01:58:13;;;;;;;1.00;0.90;;;23.70;65.50;;;;;;5039477;28;45359;-67
2022/08/08 02:00:49;;;;;;;1.55;0.98;;;23.70;65.40;;;;;;5033378;28;48188;-67
2022/08/08 02:03:26;;;;;;;1.40;1.00;;;23.70;65.40;;;;;;5038220;28;45423;-67
2022/08/08 02:06:02;;;;;;;1.05;0.85;;;23.70;65.40;;;;;;5039893;28;45213;-68
2022/08/08 02:08:46;;;;;;;1.95;1.00;;;23.60;65.30;;;;;;5039221;28;45383;-67
2022/08/08 02:11:28;;;;;;;1.42;1.10;;;23.70;65.40;;;;;;5023173;28;48294;-68
2022/08/08 02:14:01;;;;;;;1.60;0.90;;;23.60;65.50;;;;;;5024718;28;45328;-67
2022/08/08 02:16:35;;;;;;;1.73;1.00;;;23.60;65.80;;;;;;5035319;28;45265;-67
2022/08/08 02:19:11;;;;;;;1.73;1.17;;;23.60;65.70;;;;;;5027764;28;45336;-67
2022/08/08 02:24:50;;;;;;;0.85;0.80;;;23.60;66.40;;;;;;5018561;28;45513;-67
2022/08/08 02:27:21;;;;;;;1.10;1.00;;;23.60;65.40;;;;;;5017386;28;45312;-67
2022/08/08 02:30:02;;;;;;;2.53;1.08;;;23.60;65.20;;;;;;5019175;28;45273;-67
2022/08/08 02:33:03;;;;;;;1.77;1.02;;;23.60;65.30;;;;;;5037676;27;47154;-68
2022/08/08 02:35:56;;;;;;;1.17;1.08;;;23.60;65.20;;;;;;5038420;28;45442;-68
2022/08/08 02:38:40;;;;;;;1.15;1.02;;;23.60;65.30;;;;;;5038285;28;45562;-67
2022/08/08 02:41:44;;;;;;;1.52;1.27;;;23.60;65.50;;;;;;5038300;28;45435;-67
2022/08/08 02:44:46;;;;;;;1.40;1.10;;;23.60;65.50;;;;;;5038376;28;47506;-68
2022/08/08 02:47:51;;;;;;;1.02;0.90;;;23.60;65.20;;;;;;5038031;28;45383;-67
2022/08/08 02:51:01;;;;;;;1.23;1.02;;;23.60;65.00;;;;;;4968021;28;45550;-67
2022/08/08 02:53:51;;;;;;;1.40;1.10;;;23.60;64.90;;;;;;5031078;28;45311;-67
2022/08/08 02:57:01;;;;;;;1.13;1.02;;;23.50;64.90;;;;;;5032440;28;46284;-67
2022/08/08 03:00:14;;;;;;;1.30;1.00;;;23.60;64.80;;;;;;5029917;28;45265;-67
2022/08/08 03:03:14;;;;;;;1.42;1.00;;;23.50;64.70;;;;;;5022007;28;45465;-68
2022/08/08 03:06:14;;;;;;;1.67;1.00;;;23.50;64.90;;;;;;5033064;28;45292;-67
2022/08/08 03:09:33;;;;;;;1.20;1.00;;;23.50;65.10;;;;;;5041690;28;46671;-68
2022/08/08 03:12:29;;;;;;;1.00;0.90;;;23.50;66.20;;;;;;5040441;28;45688;-67
2022/08/08 03:15:17;;;;;;;1.67;1.08;;;23.50;65.00;;;;;;5038470;28;45591;-67
2022/08/08 03:17:49;;;;;;;2.13;1.10;;;23.50;64.90;;;;;;5040452;28;45504;-67
2022/08/08 03:20:16;;;;;;;1.20;1.10;;;23.50;64.70;;;;;;5039450;28;46283;-67
2022/08/08 03:22:48;;;;;;;1.10;1.00;;;23.50;64.70;;;;;;5040227;28;45394;-67
2022/08/08 03:25:16;;;;;;;1.63;1.30;;;23.50;64.70;;;;;;5039596;28;45482;-67
2022/08/08 03:27:50;;;;;;;1.70;1.05;;;23.50;64.80;;;;;;5040368;28;45612;-67
2022/08/08 03:30:19;;;;;;;1.13;1.02;;;23.50;64.70;;;;;;5040529;28;45459;-67
2022/08/08 03:35:31;;;;;;;2.15;1.02;;;23.50;64.50;;;;;;5038625;28;45207;-67
2022/08/08 03:38:02;;;;;;;1.60;1.20;;;23.50;64.50;;;;;;5037034;28;45305;-67
2022/08/08 03:40:28;;;;;;;1.30;1.20;;;23.50;64.50;;;;;;5034643;27;46330;-67
2022/08/08 03:42:57;;;;;;;1.27;1.02;;;23.50;64.50;;;;;;5048923;28;46557;-67
2022/08/08 03:45:25;;;;;;;1.13;0.90;;;23.50;64.50;;;;;;5051765;28;45419;-67
2022/08/08 03:47:56;;;;;;;1.35;0.98;;;23.50;64.70;;;;;;5057087;28;45624;-67
2022/08/08 03:50:23;;;;;;;1.42;1.20;;;23.50;64.50;;;;;;5052002;28;47667;-68
2022/08/08 03:52:51;;;;;;;1.05;1.00;;;23.50;64.50;;;;;;5061271;28;45317;-68
2022/08/08 03:55:21;;;;;;;1.50;1.02;;;23.50;64.60;;;;;;5060023;28;45237;-67
2022/08/08 03:57:49;;;;;;;1.20;1.10;;;23.50;64.50;;;;;;5021482;28;45576;-67
2022/08/08 04:00:19;;;;;;;1.35;1.00;;;23.50;64.40;;;;;;5020865;28;45388;-67
2022/08/08 04:02:55;;;;;;;1.80;1.40;;;23.40;64.30;;;;;;5049515;27;45426;-67
2022/08/08 04:05:24;;;;;;;2.10;1.15;;;23.50;64.10;;;;;;5051723;28;45360;-67
2022/08/08 04:07:50;;;;;;;1.80;1.10;;;23.40;64.20;;;;;;5052627;28;45329;-67
2022/08/08 04:10:18;;;;;;;1.63;1.30;;;23.50;64.10;;;;;;5059204;28;46437;-67
2022/08/08 04:12:45;;;;;;;1.30;1.15;;;23.50;64.10;;;;;;5057130;28;45314;-67
2022/08/08 04:15:12;;;;;;;1.45;0.90;;;23.50;64.20;;;;;;5050060;28;45419;-67
2022/08/08 04:17:39;;;;;;;1.23;1.13;;;23.50;64.20;;;;;;5058895;28;45262;-67
2022/08/08 04:20:07;;;;;;;1.30;1.17;;;23.40;64.10;;;;;;5049420;28;47909;-67
2022/08/08 04:22:34;;;;;;;1.35;1.10;;;23.40;64.20;;;;;;5060543;28;45321;-67
2022/08/08 04:25:01;;;;;;;1.40;1.02;;;23.40;64.10;;;;;;5045300;27;45292;-68
2022/08/08 04:27:29;;;;;;;1.30;1.20;;;23.50;64.20;;;;;;5050663;28;45559;-67
2022/08/08 04:29:56;;;;;;;1.67;1.10;;;23.40;64.20;;;;;;5052533;28;46291;-67
2022/08/08 04:32:23;;;;;;;1.42;1.33;;;23.40;64.20;;;;;;5044237;28;45766;-67
2022/08/08 04:34:50;;;;;;;1.58;1.20;;;23.40;64.10;;;;;;5045009;27;45577;-67
2022/08/08 04:37:17;;;;;;;1.45;1.20;;;23.40;64.00;;;;;;5040907;28;45286;-67
2022/08/08 04:39:44;;;;;;;1.05;0.98;;;23.40;64.00;;;;;;5040421;28;47446;-67
2022/08/08 04:42:10;;;;;;;1.35;1.10;;;23.40;64.20;;;;;;5043543;28;45358;-68
2022/08/08 04:44:38;;;;;;;1.80;1.17;;;23.40;64.10;;;;;;5051626;28;45441;-68
2022/08/08 04:47:05;;;;;;;1.60;1.27;;;23.40;64.00;;;;;;5053655;28;45560;-67
2022/08/08 04:49:32;;;;;;;1.33;1.23;;;23.40;64.00;;;;;;5039095;28;48124;-67
2022/08/08 04:51:59;;;;;;;1.42;1.10;;;23.40;63.80;;;;;;5040522;28;45476;-67
2022/08/08 04:54:26;;;;;;;1.70;1.48;;;23.40;63.60;;;;;;5051490;28;45344;-68
2022/08/08 04:56:53;;;;;;;2.08;1.50;;;23.40;63.20;;;;;;5052093;28;45282;-67
2022/08/08 04:59:20;;;;;;;1.95;1.40;;;23.40;63.10;;;;;;5048422;28;48534;-68
2022/08/08 05:01:48;;;;;;;1.77;1.23;;;23.40;62.80;;;;;;5044497;28;45338;-68
2022/08/08 05:04:15;;;;;;;1.50;1.30;;;23.40;62.90;;;;;;5037429;27;45210;-68
2022/08/08 05:06:42;;;;;;;1.30;1.20;;;23.40;62.80;;;;;;5038068;27;45493;-68
2022/08/08 05:09:09;;;;;;;1.45;1.30;;;23.40;62.80;;;;;;5035995;27;48059;-67
2022/08/08 05:11:36;;;;;;;1.52;1.42;;;23.40;63.20;;;;;;5037067;28;45459;-67
2022/08/08 05:14:02;;;;;;;2.00;1.40;;;23.40;63.50;;;;;;5037768;28;45502;-68
2022/08/08 05:16:29;;;;;;;1.50;1.23;;;23.50;63.70;;;;;;5044922;27;45434;-68
2022/08/08 05:18:58;;;;;;;1.80;1.55;;;23.40;63.80;;;;;;5053955;28;47080;-67
2022/08/08 05:21:24;;;;;;;1.80;1.50;;;23.50;64.00;;;;;;5047901;27;45309;-67
2022/08/08 05:23:53;;;;;;;2.20;1.45;;;23.50;64.10;;;;;;5039211;27;45363;-68
2022/08/08 05:26:20;;;;;;;2.63;1.75;;;23.50;64.10;;;;;;5039389;27;45430;-67
2022/08/08 05:28:46;;;;;;;2.47;1.80;;;23.50;64.10;;;;;;5038786;27;48477;-67
2022/08/08 05:31:13;;;;;;;3.05;1.85;;;23.50;64.30;;;;;;5043016;28;45371;-67
2022/08/08 05:33:40;;;;;;;1.90;1.73;;;23.60;64.50;;;;;;5045059;28;45608;-67
2022/08/08 05:36:10;;;;;;;2.28;1.60;;;23.60;64.80;;;;;;5037471;28;45519;-67
2022/08/08 05:38:46;;;;;;;2.03;1.83;;;23.60;65.00;;;;;;5038707;27;45622;-67
2022/08/08 05:41:16;;;;;;;2.10;1.70;;;23.60;64.80;;;;;;5033768;28;46443;-67
2022/08/08 05:43:46;;;;;;;3.40;1.98;;;23.60;64.00;;;;;;5019712;28;45400;-68
2022/08/08 05:46:13;;;;;;;2.00;1.80;;;23.60;63.70;;;;;;5034706;28;45282;-67
2022/08/08 05:48:40;;;;;;;3.10;1.88;;;23.60;63.50;;;;;;5049545;28;47552;-68
2022/08/08 05:51:08;;;;;;;4.47;2.00;;;23.60;63.30;;;;;;5049735;28;45291;-68
2022/08/08 05:53:36;;;;;;;3.65;1.75;;;23.60;63.20;;;;;;5053869;28;45277;-68
2022/08/08 05:56:02;;;;;;;3.03;1.70;;;23.60;63.30;;;;;;5037660;28;45378;-68
2022/08/08 05:58:31;;;;;;;1.83;1.50;;;23.60;63.80;;;;;;5043721;28;48235;-68
2022/08/08 06:01:00;;;;;;;2.95;1.50;;;23.60;64.10;;;;;;5043872;28;45234;-68
2022/08/08 06:03:29;;;;;;;1.92;1.50;;;23.60;64.30;;;;;;5037800;28;45496;-68
2022/08/08 06:05:58;;;;;;;2.63;1.50;;;23.60;64.50;;;;;;5034875;28;45399;-68
2022/08/08 06:08:28;;;;;;;2.35;1.52;;;23.60;64.60;;;;;;5033820;28;47501;-68
2022/08/08 06:10:56;;;;;;;2.28;1.55;;;23.60;64.80;;;;;;5033149;28;45593;-67
2022/08/08 06:13:24;;;;;;;2.20;1.40;;;23.60;64.90;;;;;;5038495;28;45374;-68
2022/08/08 06:15:54;;;;;;;2.65;1.70;;;23.60;65.00;;;;;;5035365;28;45624;-69
2022/08/08 06:18:23;;;;;;;2.00;1.60;;;23.60;65.20;;;;;;5034338;28;45572;-69
2022/08/08 06:20:52;;;;;;;2.33;1.40;;;23.60;65.20;;;;;;5035793;27;45410;-68
2022/08/08 06:23:19;;;;;;;2.20;1.60;;;23.60;65.40;;;;;;5035384;28;45416;-67
2022/08/08 06:25:54;;;;;;;1.73;1.50;;;23.60;65.40;;;;;;5034420;28;45412;-68
2022/08/08 06:28:29;;;;;;;2.05;1.40;;;23.60;65.50;;;;;;5036289;27;45762;-68
2022/08/08 06:30:59;;;;;;;2.45;1.50;;;23.60;65.60;;;;;;5038457;28;46918;-68
2022/08/08 06:33:34;;;;;;;2.33;1.52;;;23.60;65.60;;;;;;5038297;28;45420;-68
2022/08/08 06:36:03;;;;;;;1.25;1.15;;;23.60;65.60;;;;;;5033522;28;45551;-68
2022/08/08 06:38:35;;;;;;;1.88;1.60;;;23.60;65.70;;;;;;5050949;28;47088;-67
2022/08/08 06:41:06;;;;;;;1.88;1.50;;;23.60;65.70;;;;;;5038331;28;45566;-67
2022/08/08 06:43:36;;;;;;;1.85;1.50;;;23.60;65.80;;;;;;5041401;28;45387;-68
2022/08/08 06:46:03;;;;;;;1.50;1.35;;;23.60;65.90;;;;;;5038097;27;45412;-68
2022/08/08 06:48:30;;;;;;;1.95;1.70;;;23.60;65.90;;;;;;5038799;28;47472;-67
2022/08/08 06:50:58;;;;;;;1.55;1.45;;;23.60;66.00;;;;;;5035864;28;45505;-67
2022/08/08 06:53:26;;;;;;;1.88;1.35;;;23.60;66.10;;;;;;5038068;27;45429;-68
2022/08/08 06:55:53;;;;;;;2.00;1.58;;;23.60;66.20;;;;;;5036854;28;45339;-67
2022/08/08 06:58:21;;;;;;;1.95;1.50;;;23.60;66.20;;;;;;5037637;28;46150;-67
2022/08/08 07:00:50;;;;;;;2.35;1.45;;;23.60;66.30;;;;;;5038313;27;45657;-67
2022/08/08 07:03:32;;;;;;;1.98;1.60;;;23.60;66.30;;;;;;5037183;28;45342;-67
2022/08/08 07:06:00;;;;;;;2.25;1.60;;;23.60;66.50;;;;;;5036840;28;45488;-67
2022/08/08 07:08:33;;;;;;;4.20;1.67;;;23.60;66.40;;;;;;5038219;28;45354;-68
2022/08/08 07:11:04;;;;;;;1.98;1.60;;;23.60;66.40;;;;;;5038071;28;45354;-67
2022/08/08 07:13:38;;;;;;;1.92;1.60;;;23.60;66.50;;;;;;5037970;27;45493;-68
2022/08/08 07:16:13;;;;;;;2.78;1.38;;;23.60;66.40;;;;;;5037686;28;45595;-68
2022/08/08 07:18:51;;;;;;;2.33;1.60;;;23.60;66.50;;;;;;5039717;27;46594;-68
2022/08/08 07:21:21;;;;;;;2.17;1.60;;;23.60;66.60;;;;;;5042460;27;45214;-67
2022/08/08 07:23:57;;;;;;;2.20;1.60;;;23.60;67.10;;;;;;5039834;27;45344;-67
2022/08/08 07:26:26;;;;;;;2.50;1.58;;;23.60;66.60;;;;;;5039146;27;45242;-67
2022/08/08 07:28:54;;;;;;;1.70;1.45;;;23.60;66.60;;;;;;5040409;28;48059;-67
2022/08/08 07:31:22;;;;;;;2.40;1.60;;;23.60;66.70;;;;;;5038918;27;45304;-67
2022/08/08 07:33:49;;;;;;;1.70;1.33;;;23.60;66.70;;;;;;5038458;28;45367;-67
2022/08/08 07:36:16;;;;;;;2.50;1.70;;;23.60;66.70;;;;;;5039893;27;45258;-67
2022/08/08 07:38:47;;;;;;;3.35;2.10;;;23.60;66.80;;;;;;5041456;28;46602;-67
2022/08/08 07:41:16;;;;;;;1.67;1.50;;;23.60;66.80;;;;;;5038649;27;45398;-68
2022/08/08 07:43:44;;;;;;;2.20;1.70;;;23.60;66.80;;;;;;5039651;27;45411;-67
2022/08/08 07:46:12;;;;;;;2.03;1.58;;;23.60;67.00;;;;;;5037359;28;45407;-68
2022/08/08 07:48:39;;;;;;;1.80;1.35;;;23.60;66.90;;;;;;5039646;28;46551;-67
2022/08/08 07:51:08;;;;;;;2.08;1.60;;;23.60;66.90;;;;;;5037455;27;45281;-67
2022/08/08 07:53:40;;;;;;;2.20;1.70;;;23.60;66.80;;;;;;5033105;28;45469;-67
2022/08/08 07:56:12;;;;;;;2.42;1.35;;;23.60;66.80;;;;;;5037446;28;45393;-68
2022/08/08 07:58:42;;;;;;;2.22;1.60;;;23.60;67.00;;;;;;5039095;28;46636;-67
2022/08/08 08:01:11;;;;;;;2.08;1.60;;;23.60;66.80;;;;;;5038860;27;45459;-68
2022/08/08 08:03:45;;;;;;;2.20;1.45;;;23.60;66.90;;;;;;5038957;28;45548;-68
2022/08/08 08:06:13;;;;;;;2.03;1.70;;;23.60;66.90;;;;;;5036687;27;45317;-67
2022/08/08 08:08:41;;;;;;;5.75;2.10;;;23.60;66.90;;;;;;5038948;28;46820;-67
2022/08/08 08:11:12;;;;;;;2.10;1.77;;;23.60;66.90;;;;;;5037911;28;45402;-68
2022/08/08 08:13:44;;;;;;;4.53;1.90;;;23.60;66.90;;;;;;5038182;28;45333;-67
2022/08/08 08:16:15;;;;;;;3.88;2.20;;;23.70;67.00;;;;;;5035978;28;45370;-68
2022/08/08 08:18:44;;;;;;;2.90;2.10;;;23.70;66.90;;;;;;5026859;28;46288;-67
2022/08/08 08:21:13;;;;;;;4.10;2.38;;;23.70;67.00;;;;;;5032792;28;46309;-68
2022/08/08 08:23:39;;;;;;;3.83;2.22;;;23.60;66.90;;;;;;5039185;28;45573;-67
2022/08/08 08:26:06;;;;;;;3.13;2.00;;;23.70;67.00;;;;;;5039280;28;45278;-68
2022/08/08 08:28:33;;;;;;;3.40;2.40;;;23.60;66.80;;;;;;5038644;27;46388;-68
2022/08/08 08:31:03;;;;;;;4.30;2.15;;;23.70;67.00;;;;;;5039014;28;45230;-67
2022/08/08 08:33:30;;;;;;;4.78;2.28;;;23.70;67.10;;;;;;5038510;27;45369;-68
2022/08/08 08:35:59;;;;;;;4.70;2.50;;;23.60;66.90;;;;;;5039057;27;45384;-68
2022/08/08 08:38:26;;;;;;;3.00;2.05;;;23.70;67.00;;;;;;5036962;28;45282;-67
2022/08/08 08:40:52;;;;;;;3.45;2.20;;;23.60;68.00;;;;;;5031357;28;45705;-68
2022/08/08 08:43:20;;;;;;;4.43;2.58;;;23.70;66.90;;;;;;5037973;27;45538;-68
2022/08/08 08:45:48;;;;;;;3.63;2.00;;;23.60;66.80;;;;;;5037339;27;45385;-67
2022/08/08 08:48:19;;;;;;;3.30;2.20;;;23.60;66.80;;;;;;5038364;28;46565;-68
2022/08/08 08:50:50;;;;;;;3.40;1.88;;;23.60;66.90;;;;;;5036984;28;45614;-67
2022/08/08 08:53:19;;;;;;;2.67;2.10;;;23.60;66.90;;;;;;5037093;28;45528;-67
2022/08/08 08:55:46;;;;;;;4.72;2.22;;;23.60;67.00;;;;;;5038300;27;45457;-68
2022/08/08 08:58:25;;;;;;;3.70;2.20;;;23.60;67.90;;;;;;5037664;27;47720;-67
2022/08/08 09:00:52;;;;;;;3.95;1.90;;;23.70;67.00;;;;;;5038154;28;45424;-67
2022/08/08 09:03:22;;;;;;;2.92;2.00;;;23.60;66.90;;;;;;5037610;27;45408;-67
2022/08/08 09:05:49;;;;;;;3.55;2.30;;;23.60;66.80;;;;;;5038160;27;45392;-67
2022/08/08 09:08:21;;;;;;;3.72;2.30;;;23.60;66.90;;;;;;5037640;28;47077;-67
2022/08/08 09:10:48;;;;;;;3.13;1.70;;;23.70;67.00;;;;;;5038682;28;45382;-67
2022/08/08 09:13:16;;;;;;;3.00;2.03;;;23.70;67.10;;;;;;5038064;28;45455;-68
2022/08/08 09:15:43;;;;;;;2.78;1.80;;;23.70;67.00;;;;;;5036747;28;45393;-67
2022/08/08 09:18:11;;;;;;;3.05;1.83;;;23.70;66.90;;;;;;5037748;28;48207;-67
2022/08/08 09:20:39;;;;;;;3.15;1.80;;;23.70;66.90;;;;;;5038275;28;45453;-68
2022/08/08 09:23:07;;;;;;;3.63;2.20;;;23.70;66.90;;;;;;5037883;27;45303;-68
2022/08/08 09:25:37;;;;;;;3.10;1.85;;;23.70;66.90;;;;;;5036008;27;45425;-67
2022/08/08 09:28:04;;;;;;;3.30;1.98;;;23.70;66.80;;;;;;5037413;27;45409;-67
2022/08/08 09:30:33;;;;;;;4.07;2.15;;;23.70;66.80;;;;;;5038077;28;45520;-67
2022/08/08 09:33:02;;;;;;;2.00;1.50;;;23.70;66.80;;;;;;5038255;27;45457;-67
2022/08/08 09:35:31;;;;;;;3.38;1.98;;;23.70;66.80;;;;;;5037339;28;45458;-68
2022/08/08 09:38:02;;;;;;;2.88;1.88;;;23.70;66.70;;;;;;5038069;28;45473;-68
2022/08/08 09:40:31;;;;;;;2.60;1.88;;;23.70;66.80;;;;;;5030529;28;45870;-67
2022/08/08 09:43:09;;;;;;;4.70;2.00;;;23.70;66.80;;;;;;5038588;27;45526;-68
2022/08/08 09:45:45;;;;;;;2.83;1.98;;;23.70;66.70;;;;;;5037613;27;45519;-68
2022/08/08 09:48:12;;;;;;;2.75;1.83;;;23.70;66.70;;;;;;5037162;28;45470;-67
2022/08/08 09:50:40;;;;;;;2.70;1.77;;;23.70;66.80;;;;;;5029689;28;45658;-68
2022/08/08 09:53:10;;;;;;;2.35;1.70;;;23.70;66.70;;;;;;5037620;27;45399;-67
2022/08/08 09:55:38;;;;;;;3.22;2.00;;;23.70;66.60;;;;;;5037197;28;45343;-67
2022/08/08 09:58:07;;;;;;;2.20;1.85;;;23.70;66.60;;;;;;5037129;28;46589;-67
2022/08/08 10:00:37;;;;;;;3.33;1.83;;;23.70;66.60;;;;;;5029455;28;45560;-67
2022/08/08 10:03:05;;;;;;;2.80;1.70;;;23.70;66.60;;;;;;5037237;27;45368;-67
2022/08/08 10:05:35;;;;;;;2.90;1.60;;;23.70;66.60;;;;;;5037264;28;45450;-67
2022/08/08 10:08:02;;;;;;;3.72;1.80;;;23.70;66.50;;;;;;5037078;28;47442;-68
2022/08/08 10:10:34;;;;;;;3.17;1.60;;;23.70;66.50;;;;;;5036610;28;45347;-68
2022/08/08 10:13:02;;;;;;;2.17;1.80;;;23.70;66.50;;;;;;5037302;27;45382;-69
2022/08/08 10:15:38;;;;;;;2.17;1.55;;;23.70;66.50;;;;;;5034800;28;45515;-68
2022/08/08 10:18:05;;;;;;;2.10;1.55;;;23.70;66.40;;;;;;5033630;28;46225;-68
2022/08/08 10:20:40;;;;;;;1.80;1.52;;;23.70;66.40;;;;;;5036704;28;45431;-67
2022/08/08 10:23:08;;;;;;;2.33;1.60;;;23.70;66.50;;;;;;5036922;27;45471;-67
2022/08/08 10:25:38;;;;;;;2.33;1.38;;;23.70;66.50;;;;;;5036883;28;45386;-68
2022/08/08 10:28:07;;;;;;;1.85;1.30;;;23.70;66.40;;;;;;5035495;28;47530;-68
2022/08/08 10:30:35;;;;;;;2.90;1.60;;;23.70;66.40;;;;;;5029983;27;45340;-69
2022/08/08 10:33:02;;;;;;;3.05;1.77;;;23.70;67.50;;;;;;5036388;28;45380;-69
2022/08/08 10:35:31;;;;;;;2.40;1.60;;;23.70;66.40;;;;;;5034738;27;45327;-69
2022/08/08 10:38:00;;;;;;;2.63;1.58;;;23.70;66.40;;;;;;5035596;28;45311;-67
2022/08/08 10:40:29;;;;;;;2.13;1.50;;;23.70;66.30;;;;;;5051459;27;45520;-66
2022/08/08 10:42:58;;;;;;;3.00;1.90;;;23.70;66.10;;;;;;5031130;27;45408;-68
2022/08/08 10:45:25;;;;;;;2.53;1.48;;;23.70;66.00;;;;;;5033819;28;45811;-67
2022/08/08 10:47:56;;;;;;;2.95;1.70;;;23.80;66.10;;;;;;5036467;27;48122;-68
2022/08/08 10:50:31;;;;;;;3.22;1.80;;;23.70;66.00;;;;;;5030312;27;45364;-68
2022/08/08 10:53:02;;;;;;;3.50;1.58;;;23.80;66.10;;;;;;5034443;28;45437;-67
2022/08/08 10:55:29;;;;;;;1.77;1.40;;;23.80;65.90;;;;;;5039957;28;45319;-67
2022/08/08 10:58:00;;;;;;;1.67;1.40;;;23.80;65.90;;;;;;5038474;28;47572;-68
2022/08/08 11:00:27;;;;;;;2.20;1.50;;;23.80;65.90;;;;;;5037639;27;45404;-68
2022/08/08 11:02:56;;;;;;;1.95;1.35;;;23.80;65.90;;;;;;5030965;28;45637;-67
2022/08/08 11:05:26;;;;;;;2.45;1.55;;;23.80;65.90;;;;;;5035347;28;45338;-67
2022/08/08 11:07:56;;;;;;;3.05;1.45;;;23.80;65.80;;;;;;5035819;28;47588;-68
2022/08/08 11:10:24;;;;;;;1.92;1.40;;;23.80;65.70;;;;;;5035290;28;45292;-68
2022/08/08 11:12:53;;;;;;;2.45;1.40;;;23.80;65.60;;;;;;5036636;27;45359;-67
2022/08/08 11:15:22;;;;;;;3.00;1.60;;;23.80;65.60;;;;;;5035715;28;45404;-67
2022/08/08 11:17:50;;;;;;;2.45;1.50;;;23.80;65.60;;;;;;5039250;27;46257;-67
2022/08/08 11:20:21;;;;;;;2.55;1.67;;;23.80;65.40;;;;;;5034050;28;45386;-67
2022/08/08 11:22:51;;;;;;;2.95;1.50;;;23.80;65.40;;;;;;5040546;27;45335;-68
2022/08/08 11:25:19;;;;;;;2.03;1.40;;;23.80;65.40;;;;;;5038167;28;45434;-67
2022/08/08 11:27:47;;;;;;;1.88;1.27;;;23.80;65.30;;;;;;5038990;27;48427;-67
2022/08/08 11:30:14;;;;;;;2.65;1.50;;;23.80;65.30;;;;;;5039426;28;45671;-68
2022/08/08 11:32:43;;;;;;;1.55;1.40;;;23.80;65.30;;;;;;5039520;28;45631;-68
2022/08/08 11:35:13;;;;;;;2.03;1.52;;;23.80;65.20;;;;;;5035304;28;45354;-67
2022/08/08 11:37:42;;;;;;;1.40;1.25;;;23.80;65.20;;;;;;5037476;28;48420;-68
2022/08/08 11:40:12;;;;;;;1.73;1.38;;;23.80;65.20;;;;;;5037465;27;45377;-68
2022/08/08 11:42:40;;;;;;;1.83;1.20;;;23.80;65.20;;;;;;5036261;27;45419;-67
2022/08/08 11:45:09;;;;;;;2.38;1.70;;;23.80;65.20;;;;;;5036433;27;45499;-67
2022/08/08 11:47:39;;;;;;;2.22;1.38;;;23.80;65.30;;;;;;5040288;28;48847;-67
2022/08/08 11:50:08;;;;;;;1.88;1.40;;;23.80;65.30;;;;;;5068763;27;45304;-68
2022/08/08 11:52:36;;;;;;;2.35;1.50;;;23.80;65.20;;;;;;5038531;28;45388;-67
2022/08/08 11:55:15;;;;;;;1.65;1.30;;;23.80;65.20;;;;;;5038618;27;45490;-67
2022/08/08 11:57:42;;;;;;;1.30;1.20;;;23.80;65.30;;;;;;5034959;27;45475;-67
2022/08/08 12:00:16;;;;;;;1.65;1.20;;;23.80;66.40;;;;;;5038087;27;45331;-67
2022/08/08 12:02:48;;;;;;;1.75;1.30;;;23.80;65.20;;;;;;5037264;28;45494;-68
2022/08/08 12:05:15;;;;;;;2.00;1.20;;;23.80;65.30;;;;;;5038667;28;45554;-67
2022/08/08 12:07:47;;;;;;;2.15;1.52;;;23.80;65.20;;;;;;5038876;27;45699;-67
2022/08/08 12:10:17;;;;;;;1.63;1.30;;;23.80;65.20;;;;;;5037757;28;45448;-68
2022/08/08 12:12:46;;;;;;;2.00;1.10;;;23.80;65.00;;;;;;5037996;28;45461;-68
2022/08/08 12:15:24;;;;;;;1.63;1.10;;;23.80;65.00;;;;;;5037892;27;45395;-67
2022/08/08 12:17:51;;;;;;;1.52;1.23;;;23.80;64.90;;;;;;5038586;27;47040;-68
2022/08/08 12:20:17;;;;;;;2.20;1.40;;;23.80;64.90;;;;;;5035939;27;45386;-67
2022/08/08 12:22:49;;;;;;;1.75;1.17;;;23.80;64.90;;;;;;5039345;28;45411;-68
2022/08/08 12:25:22;;;;;;;1.63;1.10;;;23.80;64.90;;;;;;5037359;27;45260;-67
2022/08/08 12:27:49;;;;;;;2.58;1.35;;;23.80;64.80;;;;;;5039024;28;45535;-67
2022/08/08 12:30:16;;;;;;;1.95;1.42;;;23.80;64.90;;;;;;5038467;28;45286;-68
2022/08/08 12:32:46;;;;;;;1.75;1.27;;;23.80;64.80;;;;;;5037603;27;45458;-67
2022/08/08 12:35:21;;;;;;;1.40;1.27;;;23.80;64.90;;;;;;5036449;28;45352;-67
2022/08/08 12:38:01;;;;;;;1.60;1.38;;;23.80;64.70;;;;;;5038759;28;47217;-67
2022/08/08 12:40:39;;;;;;;1.55;1.20;;;23.80;64.90;;;;;;5039111;27;45283;-69
2022/08/08 12:43:06;;;;;;;1.55;1.30;;;23.80;64.80;;;;;;5038106;27;45333;-67
2022/08/08 12:45:34;;;;;;;2.15;1.15;;;23.70;64.80;;;;;;5031690;27;45274;-67
2022/08/08 12:48:02;;;;;;;1.65;1.23;;;23.80;64.90;;;;;;5037833;28;46628;-67
2022/08/08 12:50:39;;;;;;;2.17;1.40;;;23.80;64.80;;;;;;5036341;27;45380;-67
2022/08/08 12:53:17;;;;;;;2.00;1.40;;;23.80;64.80;;;;;;5037737;28;45348;-67
2022/08/08 12:55:57;;;;;;;1.10;1.00;;;23.80;64.80;;;;;;5030851;28;45377;-67
2022/08/08 12:58:24;;;;;;;2.35;1.30;;;23.80;64.80;;;;;;5037757;27;46414;-67
2022/08/08 13:00:51;;;;;;;1.67;1.20;;;23.80;64.80;;;;;;5039110;28;45277;-67
2022/08/08 13:03:25;;;;;;;1.92;1.20;;;23.80;64.70;;;;;;5037729;28;45404;-67
2022/08/08 13:06:03;;;;;;;1.23;1.13;;;23.80;64.70;;;;;;5038847;27;45424;-67
2022/08/08 13:08:43;;;;;;;2.60;1.20;;;23.80;64.90;;;;;;5035220;28;46144;-67
2022/08/08 13:11:23;;;;;;;1.50;1.20;;;23.80;64.90;;;;;;5037555;28;45369;-69
2022/08/08 13:14:01;;;;;;;1.38;1.05;;;23.80;64.90;;;;;;5017858;28;45266;-67
2022/08/08 13:16:30;;;;;;;2.08;1.25;;;23.80;64.90;;;;;;5037279;28;45430;-67
2022/08/08 13:18:58;;;;;;;1.80;1.25;;;23.80;64.70;;;;;;5038781;28;45537;-67
2022/08/08 13:21:25;;;;;;;1.42;1.27;;;23.80;64.70;;;;;;5037200;28;45927;-67
2022/08/08 13:23:52;;;;;;;1.25;1.10;;;23.80;64.70;;;;;;5031481;27;45437;-68
2022/08/08 13:26:20;;;;;;;1.58;1.23;;;23.80;64.70;;;;;;5035144;28;45357;-67